Time;durP1;ratioP1;P1;durP2;ratioP2;P2;SDS_P1;SDS_P2;PMS_P1;PMS_P2;Temp;Humidity;BMP_temperature;BMP_pressure;BME280_temperature;BME280_humidity;BME280_pressure;Samples;Min_cycle;Max_cycle;Signal;HPM_P1;HPM_P2
2022/05/29 00:00:12;;;;;;;5.23;1.80;;;13.30;99.90;;;;;;6268917;22;20175;-87
2022/05/29 00:02:43;;;;;;;3.43;1.90;;;13.20;99.90;;;;;;6267830;23;20203;-90
2022/05/29 00:05:15;;;;;;;2.43;1.97;;;13.20;99.90;;;;;;6267883;22;20175;-89
2022/05/29 00:07:50;;;;;;;2.63;1.93;;;13.30;99.90;;;;;;6263130;22;20238;-89
2022/05/29 00:10:22;;;;;;;2.70;1.83;;;13.40;99.90;;;;;;6267150;22;20170;-89
2022/05/29 00:12:55;;;;;;;4.17;2.20;;;13.50;99.90;;;;;;6263572;23;20183;-90
2022/05/29 00:15:27;;;;;;;2.77;1.50;;;13.30;99.90;;;;;;6269367;22;20186;-90
2022/05/29 00:17:59;;;;;;;2.67;1.50;;;13.10;99.90;;;;;;6268827;22;20192;-89
2022/05/29 00:20:31;;;;;;;1.83;1.63;;;13.00;99.90;;;;;;6266742;22;20175;-89
2022/05/29 00:23:03;;;;;;;3.10;1.90;;;12.80;99.90;;;;;;6266332;22;20168;-89
2022/05/29 00:25:35;;;;;;;3.80;1.63;;;12.70;99.90;;;;;;6266370;22;20222;-89
2022/05/29 00:28:09;;;;;;;4.67;2.10;;;12.60;99.90;;;;;;6265309;23;20192;-89
2022/05/29 00:30:40;;;;;;;2.83;1.70;;;12.50;99.90;;;;;;6251129;22;20198;-89
2022/05/29 00:33:12;;;;;;;3.30;1.50;;;12.50;99.90;;;;;;6256915;22;20168;-89
2022/05/29 00:35:44;;;;;;;2.47;1.60;;;12.60;99.90;;;;;;6264970;23;20163;-90
2022/05/29 00:38:16;;;;;;;3.70;1.40;;;12.70;99.90;;;;;;6264801;23;20225;-88
2022/05/29 00:40:53;;;;;;;1.77;1.53;;;12.80;99.90;;;;;;6255957;22;20176;-90
2022/05/29 00:43:27;;;;;;;4.00;1.37;;;12.80;99.90;;;;;;6252881;22;20168;-89
2022/05/29 00:46:01;;;;;;;4.30;1.63;;;12.70;99.90;;;;;;6252298;23;20168;-89
2022/05/29 00:48:32;;;;;;;3.93;1.30;;;12.70;99.90;;;;;;6252499;22;20187;-90
2022/05/29 00:51:08;;;;;;;2.20;1.47;;;12.70;99.90;;;;;;6252021;23;20171;-89
2022/05/29 00:53:40;;;;;;;3.60;1.70;;;12.60;99.90;;;;;;6256722;22;20179;-89
2022/05/29 00:56:15;;;;;;;2.20;1.40;;;12.40;99.90;;;;;;6263126;23;20895;-89
2022/05/29 00:58:48;;;;;;;3.07;1.63;;;12.40;99.90;;;;;;6254826;22;20204;-90
2022/05/29 01:01:20;;;;;;;4.30;1.70;;;12.40;99.90;;;;;;6270410;22;20590;-89
2022/05/29 01:03:51;;;;;;;3.13;1.80;;;12.40;99.90;;;;;;6272517;23;20212;-88
2022/05/29 01:06:23;;;;;;;4.40;1.80;;;12.30;99.90;;;;;;6269868;22;20167;-89
2022/05/29 01:08:56;;;;;;;3.73;2.00;;;12.30;99.90;;;;;;6241066;22;20218;-88
2022/05/29 01:11:36;;;;;;;3.50;2.00;;;12.30;99.90;;;;;;6272582;22;20206;-89
2022/05/29 01:14:19;;;;;;;4.90;1.70;;;12.30;99.90;;;;;;6271515;22;20263;-89
2022/05/29 01:17:01;;;;;;;3.40;1.60;;;12.30;99.90;;;;;;6263823;22;20493;-90
2022/05/29 01:20:18;;;;;;;4.93;1.50;;;12.30;99.90;;;;;;6258626;22;20199;-88
2022/05/29 01:23:12;;;;;;;4.67;1.70;;;12.30;99.90;;;;;;6237714;22;20265;-90
2022/05/29 01:26:03;;;;;;;5.10;1.80;;;12.30;99.90;;;;;;6268884;22;20184;-90
2022/05/29 01:28:57;;;;;;;2.07;1.30;;;12.30;99.90;;;;;;6261956;23;20203;-89
2022/05/29 01:31:43;;;;;;;2.93;1.40;;;12.20;99.90;;;;;;6255140;22;20180;-90
2022/05/29 01:34:27;;;;;;;3.60;2.07;;;12.20;99.90;;;;;;6255489;22;20168;-89
2022/05/29 01:37:12;;;;;;;3.97;1.70;;;12.20;99.90;;;;;;6260804;23;20176;-89
2022/05/29 01:39:54;;;;;;;2.30;1.57;;;12.10;99.90;;;;;;6267564;22;20206;-89
2022/05/29 01:42:43;;;;;;;3.70;1.83;;;12.00;99.90;;;;;;6268675;23;20184;-89
2022/05/29 01:45:23;;;;;;;2.17;1.10;;;11.90;99.90;;;;;;6263986;22;20180;-89
2022/05/29 01:48:05;;;;;;;3.23;1.40;;;11.90;99.90;;;;;;6259233;23;20160;-89
2022/05/29 01:50:42;;;;;;;2.53;1.43;;;11.80;99.90;;;;;;6256589;22;20486;-88
2022/05/29 01:53:18;;;;;;;3.17;1.40;;;11.70;99.90;;;;;;6252505;23;20618;-89
2022/05/29 01:55:53;;;;;;;1.80;1.33;;;11.70;99.90;;;;;;6255916;23;20164;-89
2022/05/29 01:58:31;;;;;;;2.47;1.30;;;11.70;99.90;;;;;;6265223;22;20206;-87
2022/05/29 02:01:07;;;;;;;2.60;1.40;;;11.70;99.90;;;;;;6263992;23;20218;-89
2022/05/29 02:03:45;;;;;;;2.67;1.50;;;11.50;99.90;;;;;;6267082;22;20182;-89
2022/05/29 02:06:25;;;;;;;3.70;1.70;;;11.50;99.90;;;;;;6266682;22;20202;-89
2022/05/29 02:09:05;;;;;;;5.17;1.53;;;11.50;99.90;;;;;;6265644;23;20384;-89
2022/05/29 02:11:36;;;;;;;3.40;2.17;;;11.50;99.90;;;;;;6265147;22;20202;-90
2022/05/29 02:14:14;;;;;;;3.03;1.60;;;11.40;99.90;;;;;;6265420;23;20176;-89
2022/05/29 02:16:52;;;;;;;2.43;1.57;;;11.50;99.90;;;;;;6262028;22;20234;-90
2022/05/29 02:19:27;;;;;;;4.10;1.93;;;11.50;99.90;;;;;;6266626;22;20209;-89
2022/05/29 02:22:02;;;;;;;3.93;2.00;;;11.50;99.90;;;;;;6266643;22;20202;-89
2022/05/29 02:24:35;;;;;;;2.37;1.77;;;11.50;99.90;;;;;;6267486;22;20155;-89
2022/05/29 02:27:12;;;;;;;3.63;1.97;;;11.60;99.90;;;;;;6267728;22;20172;-89
2022/05/29 02:29:44;;;;;;;4.63;2.30;;;11.50;99.90;;;;;;6266375;22;20608;-89
2022/05/29 02:32:27;;;;;;;4.77;2.07;;;11.50;99.90;;;;;;6268738;22;20184;-89
2022/05/29 02:35:06;;;;;;;5.50;2.20;;;11.50;99.90;;;;;;6265913;22;20218;-89
2022/05/29 02:37:43;;;;;;;2.93;2.03;;;11.50;99.90;;;;;;6265736;22;20170;-90
2022/05/29 02:40:24;;;;;;;4.10;2.33;;;11.60;99.90;;;;;;6262995;22;20539;-90
2022/05/29 02:43:04;;;;;;;6.40;2.50;;;11.60;99.90;;;;;;6264210;23;20180;-89
2022/05/29 02:45:47;;;;;;;6.20;2.60;;;11.50;99.90;;;;;;6266399;23;20287;-91
2022/05/29 02:48:30;;;;;;;5.17;2.53;;;11.40;99.90;;;;;;6267962;22;20171;-91
2022/05/29 02:51:07;;;;;;;5.57;2.70;;;11.40;99.90;;;;;;6267336;22;20168;-88
2022/05/29 02:53:45;;;;;;;5.40;2.87;;;11.40;99.90;;;;;;6265014;22;20224;-88
2022/05/29 02:56:18;;;;;;;6.73;3.13;;;11.30;99.90;;;;;;6261739;22;20219;-89
2022/05/29 02:58:54;;;;;;;5.60;3.13;;;11.40;99.90;;;;;;6255940;22;20279;-89
2022/05/29 03:01:36;;;;;;;4.90;2.90;;;11.30;99.90;;;;;;6261518;23;20206;-88
2022/05/29 03:04:28;;;;;;;6.83;2.67;;;11.30;99.90;;;;;;6257943;23;20176;-89
2022/05/29 03:07:06;;;;;;;4.17;2.80;;;11.30;99.90;;;;;;6258951;22;20179;-90
2022/05/29 03:09:51;;;;;;;4.63;2.83;;;11.30;99.90;;;;;;6257206;22;20171;-90
2022/05/29 03:12:32;;;;;;;3.97;2.70;;;11.20;99.90;;;;;;6256973;22;20249;-90
2022/05/29 03:15:26;;;;;;;5.03;2.63;;;11.20;99.90;;;;;;6259815;23;20286;-90
2022/05/29 03:18:10;;;;;;;6.70;3.10;;;11.20;99.90;;;;;;6261469;22;20221;-89
2022/05/29 03:20:52;;;;;;;4.73;2.87;;;11.20;99.90;;;;;;6263817;22;20230;-89
2022/05/29 03:23:41;;;;;;;4.87;2.87;;;11.10;99.90;;;;;;6264246;22;20577;-90
2022/05/29 03:26:20;;;;;;;5.53;2.77;;;11.10;99.90;;;;;;6262680;22;20205;-89
2022/05/29 03:29:00;;;;;;;4.37;2.53;;;11.20;99.90;;;;;;6260743;23;20200;-91
2022/05/29 03:31:32;;;;;;;4.00;2.60;;;11.10;99.90;;;;;;6255018;23;20171;-89
2022/05/29 03:34:15;;;;;;;5.20;2.67;;;11.10;99.90;;;;;;6251774;22;20163;-89
2022/05/29 03:36:53;;;;;;;5.80;2.23;;;11.10;99.90;;;;;;6263995;23;20194;-89
2022/05/29 03:39:24;;;;;;;4.80;2.30;;;11.00;99.90;;;;;;6267231;23;20199;-89
2022/05/29 03:41:57;;;;;;;4.57;2.43;;;11.00;99.90;;;;;;6266271;22;20184;-89
2022/05/29 03:44:29;;;;;;;4.53;2.53;;;11.00;99.90;;;;;;6264079;22;20168;-90
2022/05/29 03:47:00;;;;;;;3.40;2.50;;;11.00;99.90;;;;;;6266503;22;20167;-90
2022/05/29 03:49:32;;;;;;;5.47;2.60;;;10.90;99.90;;;;;;6263267;22;20179;-89
2022/05/29 03:52:06;;;;;;;5.10;2.60;;;10.90;99.90;;;;;;6261569;22;20156;-89
2022/05/29 03:54:38;;;;;;;3.43;2.47;;;10.90;99.90;;;;;;6259426;23;20171;-89
2022/05/29 03:57:10;;;;;;;5.20;2.63;;;10.90;99.90;;;;;;6265840;22;20168;-89
2022/05/29 03:59:41;;;;;;;4.03;3.03;;;10.90;99.90;;;;;;6262767;22;20205;-89
2022/05/29 04:02:12;;;;;;;6.83;3.10;;;10.90;99.90;;;;;;6260876;22;20175;-89
2022/05/29 04:04:44;;;;;;;5.53;3.10;;;10.80;99.90;;;;;;6266181;22;20207;-89
2022/05/29 04:07:17;;;;;;;5.00;2.93;;;10.80;99.90;;;;;;6246346;22;20199;-89
2022/05/29 04:12:37;;;;;;;4.47;2.73;;;10.80;99.90;;;;;;6260670;23;20234;-88
2022/05/29 04:15:09;;;;;;;4.40;3.03;;;10.80;99.90;;;;;;6266375;22;20151;-89
2022/05/29 04:17:41;;;;;;;6.47;3.50;;;10.80;99.90;;;;;;6263676;22;20222;-90
2022/05/29 04:20:13;;;;;;;6.47;3.20;;;10.80;99.90;;;;;;6264767;22;20250;-89
2022/05/29 04:22:46;;;;;;;5.73;3.03;;;10.90;99.90;;;;;;6263415;22;20164;-88
2022/05/29 04:25:18;;;;;;;4.77;3.50;;;10.90;99.90;;;;;;6268305;22;20175;-89
2022/05/29 04:27:49;;;;;;;5.17;3.10;;;10.90;99.90;;;;;;6265179;22;20195;-89
2022/05/29 04:30:20;;;;;;;4.93;2.93;;;10.90;99.90;;;;;;6255608;22;20176;-90
2022/05/29 04:33:03;;;;;;;5.53;3.20;;;10.90;99.90;;;;;;6255279;23;20172;-89
2022/05/29 04:38:19;;;;;;;5.17;3.20;;;11.00;99.90;;;;;;6253986;22;20298;-89
2022/05/29 04:40:49;;;;;;;6.20;2.73;;;11.00;99.90;;;;;;6251539;22;20690;-89
2022/05/29 04:43:21;;;;;;;6.70;3.67;;;10.90;99.90;;;;;;6258330;22;20190;-88
2022/05/29 04:45:56;;;;;;;4.43;2.57;;;11.00;99.90;;;;;;6250486;22;20172;-89
2022/05/29 04:48:27;;;;;;;4.97;2.80;;;11.00;99.90;;;;;;6254034;22;20515;-89
2022/05/29 04:51:00;;;;;;;6.27;3.13;;;10.90;99.90;;;;;;6250105;22;20175;-88
2022/05/29 04:53:33;;;;;;;4.17;2.80;;;10.90;99.90;;;;;;6265330;23;20164;-89
2022/05/29 04:56:06;;;;;;;5.30;3.07;;;10.90;99.90;;;;;;6266218;22;20175;-89
2022/05/29 04:58:36;;;;;;;4.33;3.37;;;10.90;99.90;;;;;;6266660;22;20182;-89
2022/05/29 05:01:07;;;;;;;5.67;3.20;;;10.90;99.90;;;;;;6260335;22;20665;-89
2022/05/29 05:03:39;;;;;;;4.57;2.70;;;11.00;99.90;;;;;;6267397;22;20176;-89
2022/05/29 05:06:12;;;;;;;5.93;3.30;;;10.90;99.90;;;;;;6260932;22;20183;-89
2022/05/29 05:08:46;;;;;;;5.10;3.03;;;10.90;99.90;;;;;;6265682;22;20152;-87
2022/05/29 05:11:17;;;;;;;4.30;3.20;;;10.90;99.90;;;;;;6268070;22;20164;-89
2022/05/29 05:13:50;;;;;;;4.87;2.97;;;10.90;99.90;;;;;;6257711;22;20168;-89
2022/05/29 05:16:22;;;;;;;9.50;3.97;;;10.90;99.90;;;;;;6253022;22;20547;-89
2022/05/29 05:18:54;;;;;;;5.90;3.33;;;10.90;99.90;;;;;;6256527;22;20175;-89
2022/05/29 05:21:26;;;;;;;4.73;2.77;;;10.90;99.90;;;;;;6254862;22;20274;-89
2022/05/29 05:23:58;;;;;;;4.57;3.27;;;10.90;99.90;;;;;;6251903;22;20190;-89
2022/05/29 05:26:29;;;;;;;7.67;3.30;;;10.90;99.90;;;;;;6248935;23;20211;-89
2022/05/29 05:29:00;;;;;;;5.87;3.00;;;10.90;99.90;;;;;;6268665;23;20271;-89
2022/05/29 05:31:32;;;;;;;5.23;2.90;;;10.90;99.90;;;;;;6257427;22;20168;-89
2022/05/29 05:34:03;;;;;;;3.83;2.63;;;10.90;99.90;;;;;;6259553;22;20191;-89
2022/05/29 05:36:34;;;;;;;5.17;3.10;;;10.80;99.90;;;;;;6270472;22;20205;-90
2022/05/29 05:39:07;;;;;;;3.87;2.73;;;10.80;99.90;;;;;;6270749;22;20206;-89
2022/05/29 05:41:38;;;;;;;4.40;2.70;;;10.90;99.90;;;;;;6254840;22;20203;-90
2022/05/29 05:44:10;;;;;;;5.13;2.50;;;10.90;99.90;;;;;;6255211;22;20230;-88
2022/05/29 05:46:46;;;;;;;6.40;3.13;;;10.90;99.90;;;;;;6252379;22;20239;-89
2022/05/29 05:49:19;;;;;;;7.17;3.30;;;10.90;99.90;;;;;;6252506;22;20239;-89
2022/05/29 05:51:54;;;;;;;5.03;2.90;;;10.90;99.90;;;;;;6252160;23;20167;-89
2022/05/29 05:54:30;;;;;;;5.23;3.10;;;10.90;99.90;;;;;;6250641;23;20163;-89
2022/05/29 05:57:02;;;;;;;4.13;2.70;;;10.80;99.90;;;;;;6252194;22;20229;-90
2022/05/29 05:59:33;;;;;;;4.77;3.27;;;10.80;99.90;;;;;;6251378;22;20237;-91
2022/05/29 06:02:05;;;;;;;4.07;2.63;;;10.80;99.90;;;;;;6252885;22;20192;-89
2022/05/29 06:04:36;;;;;;;4.57;3.13;;;10.80;99.90;;;;;;6252830;22;20191;-89
2022/05/29 06:07:07;;;;;;;4.90;2.70;;;10.80;99.90;;;;;;6250960;23;20164;-89
2022/05/29 06:09:40;;;;;;;3.60;2.63;;;10.80;99.90;;;;;;6251271;23;20245;-89
2022/05/29 06:12:11;;;;;;;4.63;2.53;;;10.80;99.90;;;;;;6252101;22;20214;-89
2022/05/29 06:14:42;;;;;;;3.50;2.30;;;10.80;99.90;;;;;;6251868;22;20175;-88
2022/05/29 06:17:13;;;;;;;4.37;2.93;;;10.80;99.90;;;;;;6251104;22;20633;-89
2022/05/29 06:19:43;;;;;;;3.67;2.70;;;10.80;99.90;;;;;;6251053;22;20168;-89
2022/05/29 06:22:15;;;;;;;4.50;2.80;;;10.80;99.90;;;;;;6251650;22;20284;-89
2022/05/29 06:24:47;;;;;;;3.27;2.17;;;10.70;99.90;;;;;;6251693;22;20233;-89
2022/05/29 06:27:20;;;;;;;5.23;2.60;;;10.70;99.90;;;;;;6251418;22;20202;-90
2022/05/29 06:29:51;;;;;;;6.03;2.13;;;10.60;99.90;;;;;;6251027;22;20167;-88
2022/05/29 06:32:22;;;;;;;3.67;2.27;;;10.60;99.90;;;;;;6251177;22;20221;-89
2022/05/29 06:34:53;;;;;;;4.53;2.73;;;10.60;99.90;;;;;;6251524;22;20168;-89
2022/05/29 06:37:24;;;;;;;6.03;3.37;;;10.60;99.90;;;;;;6255884;22;20206;-89
2022/05/29 06:40:02;;;;;;;3.70;2.30;;;10.60;99.90;;;;;;6252957;22;20175;-89
2022/05/29 06:42:33;;;;;;;5.27;2.10;;;10.60;99.90;;;;;;6260935;23;20176;-88
2022/05/29 06:45:04;;;;;;;2.97;2.20;;;10.60;99.90;;;;;;6270291;22;20218;-89
2022/05/29 06:47:35;;;;;;;3.27;1.80;;;10.50;99.90;;;;;;6271650;22;20175;-88
2022/05/29 06:50:10;;;;;;;3.77;1.70;;;10.50;99.90;;;;;;6265970;22;20218;-89
2022/05/29 06:52:41;;;;;;;2.30;1.83;;;10.50;99.90;;;;;;6256404;22;20505;-88
2022/05/29 06:55:15;;;;;;;3.20;1.90;;;10.50;99.90;;;;;;6254914;22;20168;-89
2022/05/29 06:57:47;;;;;;;4.63;2.27;;;10.50;99.90;;;;;;6252175;22;20179;-89
2022/05/29 07:08:58;;;;;;;2.93;2.03;;;10.60;99.90;;;;;;6191020;23;20173;-89
2022/05/29 07:11:35;;;;;;;4.27;2.23;;;10.60;99.90;;;;;;6238311;22;20199;-89
2022/05/29 07:14:07;;;;;;;3.93;2.20;;;10.60;99.90;;;;;;6250591;23;20183;-89
2022/05/29 07:16:39;;;;;;;3.73;2.17;;;10.60;99.90;;;;;;6253710;23;20576;-88
2022/05/29 07:19:09;;;;;;;4.90;2.50;;;10.60;99.90;;;;;;6250915;23;20536;-89
2022/05/29 07:21:42;;;;;;;3.50;2.07;;;10.60;99.90;;;;;;6249665;22;20210;-88
2022/05/29 07:24:13;;;;;;;4.13;2.37;;;10.60;99.90;;;;;;6253376;23;20490;-88
2022/05/29 07:26:53;;;;;;;3.77;2.47;;;10.50;99.90;;;;;;6251633;23;20199;-88
2022/05/29 07:29:25;;;;;;;4.73;2.20;;;10.50;99.90;;;;;;6251473;23;20660;-89
2022/05/29 07:31:56;;;;;;;5.03;2.43;;;10.50;99.90;;;;;;6252176;22;20254;-88
2022/05/29 07:34:27;;;;;;;4.53;2.10;;;10.50;99.90;;;;;;6255173;23;20175;-88
2022/05/29 07:37:05;;;;;;;9.00;2.70;;;10.50;99.90;;;;;;6252690;22;20191;-88
2022/05/29 07:39:39;;;;;;;3.97;2.27;;;10.50;99.90;;;;;;6250095;22;20179;-88
2022/05/29 07:44:59;;;;;;;2.90;2.20;;;10.50;99.90;;;;;;6258271;23;20668;-89
2022/05/29 07:47:36;;;;;;;4.33;2.50;;;10.50;99.90;;;;;;6270874;22;20167;-89
2022/05/29 07:50:08;;;;;;;3.70;2.27;;;10.50;99.90;;;;;;6267545;23;20171;-89
2022/05/29 07:52:39;;;;;;;6.83;2.70;;;10.40;99.90;;;;;;6254700;22;20183;-89
2022/05/29 07:55:11;;;;;;;4.73;2.50;;;10.40;99.90;;;;;;6252190;23;20262;-88
2022/05/29 07:57:43;;;;;;;4.13;2.33;;;10.40;99.90;;;;;;6251272;23;20598;-89
2022/05/29 08:00:16;;;;;;;9.33;2.27;;;10.40;99.90;;;;;;6249500;22;20610;-89
2022/05/29 08:02:48;;;;;;;4.87;2.40;;;10.40;99.90;;;;;;6251702;22;20218;-89
2022/05/29 08:05:22;;;;;;;6.60;2.63;;;10.40;99.90;;;;;;6250431;22;20223;-89
2022/05/29 08:07:54;;;;;;;3.47;2.07;;;10.40;99.90;;;;;;6251110;22;20190;-88
2022/05/29 08:10:26;;;;;;;3.63;2.70;;;10.40;99.90;;;;;;6248762;22;20176;-89
2022/05/29 08:12:59;;;;;;;5.93;2.47;;;10.40;99.90;;;;;;6249724;23;20183;-89
2022/05/29 08:15:31;;;;;;;6.50;2.67;;;10.40;99.90;;;;;;6250155;23;20180;-89
2022/05/29 08:18:02;;;;;;;4.97;2.20;;;10.40;99.90;;;;;;6249479;22;20176;-89
2022/05/29 08:20:36;;;;;;;4.47;2.63;;;10.30;99.90;;;;;;6249018;22;20175;-88
2022/05/29 08:23:08;;;;;;;7.60;3.03;;;10.30;99.90;;;;;;6249484;23;20194;-88
2022/05/29 08:31:27;;;;;;;5.80;2.30;;;10.30;99.90;;;;;;6248208;22;20180;-88
2022/05/29 08:33:58;;;;;;;6.17;2.97;;;10.30;99.90;;;;;;6249178;22;20182;-89
2022/05/29 08:36:30;;;;;;;3.40;2.27;;;10.20;99.90;;;;;;6249762;22;20187;-88
2022/05/29 08:39:01;;;;;;;4.77;2.43;;;10.20;99.90;;;;;;6250078;23;20176;-88
2022/05/29 08:41:48;;;;;;;6.53;2.27;;;10.20;99.90;;;;;;6248794;22;20183;-88
2022/05/29 08:44:27;;;;;;;5.20;2.57;;;10.20;99.90;;;;;;6250093;22;20195;-88
2022/05/29 08:47:02;;;;;;;3.70;2.13;;;10.20;99.90;;;;;;6255263;23;20199;-88
2022/05/29 08:49:35;;;;;;;5.73;2.80;;;10.20;99.90;;;;;;6249208;23;20164;-89
2022/05/29 08:52:15;;;;;;;7.80;2.47;;;10.10;99.90;;;;;;6251541;23;20638;-88
2022/05/29 08:54:53;;;;;;;3.30;2.17;;;10.20;99.90;;;;;;6249944;22;20183;-88
2022/05/29 08:57:49;;;;;;;4.37;2.20;;;10.20;99.90;;;;;;6248745;23;20174;-89
2022/05/29 09:00:29;;;;;;;5.47;1.87;;;10.20;99.90;;;;;;6251114;22;20168;-89
2022/05/29 09:03:28;;;;;;;6.00;2.17;;;10.20;99.90;;;;;;6249671;23;20202;-89
2022/05/29 09:06:04;;;;;;;4.70;2.00;;;10.10;99.90;;;;;;6252074;22;20538;-89
2022/05/29 09:08:41;;;;;;;5.00;2.57;;;10.10;99.90;;;;;;6254443;23;20164;-89
2022/05/29 09:11:17;;;;;;;2.50;1.90;;;10.10;99.90;;;;;;6250495;22;20190;-89
2022/05/29 09:13:54;;;;;;;2.83;1.77;;;10.20;99.90;;;;;;6251766;22;20238;-89
2022/05/29 09:16:34;;;;;;;3.63;2.30;;;10.20;99.90;;;;;;6254728;22;20175;-88
2022/05/29 09:19:14;;;;;;;6.77;2.63;;;10.20;99.90;;;;;;6253573;23;20164;-88
2022/05/29 09:21:52;;;;;;;5.27;2.40;;;10.20;99.90;;;;;;6263920;22;20190;-88
2022/05/29 09:24:35;;;;;;;6.50;3.03;;;10.20;99.90;;;;;;6260987;23;20538;-88
2022/05/29 09:27:06;;;;;;;3.13;2.30;;;10.20;99.90;;;;;;6254437;22;20279;-89
2022/05/29 09:29:38;;;;;;;6.77;2.93;;;10.20;99.90;;;;;;6252968;23;20172;-88
2022/05/29 09:32:15;;;;;;;4.43;1.83;;;10.20;99.90;;;;;;6252847;22;20502;-88
2022/05/29 09:34:59;;;;;;;3.37;2.30;;;10.20;99.90;;;;;;6253348;23;20168;-89
2022/05/29 09:37:44;;;;;;;5.73;2.50;;;10.20;99.90;;;;;;6267568;22;20180;-90
2022/05/29 09:40:20;;;;;;;7.57;3.17;;;10.20;99.90;;;;;;6263858;22;20202;-88
2022/05/29 09:42:54;;;;;;;6.27;2.87;;;10.20;99.90;;;;;;6262040;23;20191;-88
2022/05/29 09:45:28;;;;;;;4.43;2.40;;;10.30;99.90;;;;;;6256147;22;20175;-88
2022/05/29 09:51:03;;;;;;;5.97;2.27;;;10.30;99.90;;;;;;6189918;23;20208;-89
2022/05/29 09:53:36;;;;;;;3.50;2.20;;;10.30;99.90;;;;;;6192896;23;20170;-89
2022/05/29 09:56:11;;;;;;;4.17;2.40;;;10.30;99.90;;;;;;6239726;22;20179;-88
2022/05/29 09:58:49;;;;;;;7.73;2.23;;;10.20;99.90;;;;;;6270248;22;20179;-87
2022/05/29 10:01:29;;;;;;;4.73;2.27;;;10.20;99.90;;;;;;6259528;23;20167;-89
2022/05/29 10:04:04;;;;;;;3.60;2.67;;;10.20;99.90;;;;;;6254580;22;20196;-88
2022/05/29 10:06:41;;;;;;;4.83;2.43;;;10.20;99.90;;;;;;6254387;22;20194;-88
2022/05/29 10:09:16;;;;;;;8.87;2.70;;;10.20;99.90;;;;;;6250925;23;20488;-89
2022/05/29 10:11:49;;;;;;;4.57;2.63;;;10.20;99.90;;;;;;6251943;22;20179;-88
2022/05/29 10:14:30;;;;;;;4.23;2.43;;;10.20;99.90;;;;;;6261568;22;20199;-89
2022/05/29 10:17:02;;;;;;;6.10;2.60;;;10.30;99.90;;;;;;6268246;22;20206;-89
2022/05/29 10:19:38;;;;;;;3.37;2.70;;;10.30;99.90;;;;;;6263125;22;20156;-91
2022/05/29 10:22:16;;;;;;;6.27;3.20;;;10.20;99.90;;;;;;6253326;22;20217;-90
2022/05/29 10:24:47;;;;;;;3.67;2.70;;;10.10;99.90;;;;;;6254828;23;20456;-88
2022/05/29 10:27:30;;;;;;;7.77;3.47;;;10.10;99.90;;;;;;6251031;22;20196;-88
2022/05/29 10:30:05;;;;;;;4.27;3.10;;;10.20;99.90;;;;;;6250129;23;20222;-88
2022/05/29 10:32:40;;;;;;;5.10;3.37;;;10.30;99.90;;;;;;6251214;22;20172;-88
2022/05/29 10:35:30;;;;;;;5.17;3.27;;;10.20;99.90;;;;;;6253922;23;20476;-89
2022/05/29 10:38:16;;;;;;;4.17;2.90;;;10.20;99.90;;;;;;6251237;22;20602;-88
2022/05/29 10:40:49;;;;;;;4.60;3.47;;;10.20;99.90;;;;;;6249568;23;20195;-88
2022/05/29 10:43:37;;;;;;;4.30;3.37;;;10.20;99.90;;;;;;6248885;23;20246;-88
2022/05/29 10:46:15;;;;;;;6.23;3.77;;;10.10;99.90;;;;;;6252148;23;20218;-89
2022/05/29 10:49:05;;;;;;;5.07;3.17;;;10.10;99.90;;;;;;6250959;22;20221;-89
2022/05/29 10:51:52;;;;;;;5.17;3.07;;;10.10;99.90;;;;;;6250224;23;20176;-88
2022/05/29 10:54:34;;;;;;;4.67;2.87;;;10.10;99.90;;;;;;6250095;23;20224;-88
2022/05/29 10:57:26;;;;;;;4.80;3.60;;;10.10;99.90;;;;;;6249509;23;20164;-89
2022/05/29 11:00:15;;;;;;;4.73;3.77;;;10.10;99.90;;;;;;6250726;22;20164;-89
2022/05/29 11:03:21;;;;;;;4.90;3.70;;;10.10;99.90;;;;;;6251187;23;20248;-89
2022/05/29 11:06:22;;;;;;;5.67;4.23;;;10.10;99.90;;;;;;6248334;23;20175;-89
2022/05/29 11:09:04;;;;;;;5.60;4.37;;;10.10;99.90;;;;;;6252260;22;20185;-89
2022/05/29 11:11:45;;;;;;;5.20;4.17;;;10.10;99.90;;;;;;6255588;22;20263;-88
2022/05/29 11:14:39;;;;;;;5.43;4.43;;;10.00;99.90;;;;;;6252240;22;20192;-88
2022/05/29 11:17:17;;;;;;;4.90;4.40;;;10.00;99.90;;;;;;6255143;22;20179;-89
2022/05/29 11:20:17;;;;;;;7.23;4.07;;;10.00;99.90;;;;;;6250533;22;20179;-89
2022/05/29 11:22:58;;;;;;;5.93;4.10;;;10.00;99.90;;;;;;6213649;22;20265;-90
2022/05/29 11:25:45;;;;;;;4.80;4.10;;;10.00;99.90;;;;;;6251438;22;20203;-89
2022/05/29 11:28:49;;;;;;;4.63;4.13;;;10.00;99.90;;;;;;6251094;23;20182;-89
2022/05/29 11:31:40;;;;;;;6.00;4.73;;;10.10;99.90;;;;;;6246826;23;20245;-89
2022/05/29 11:34:26;;;;;;;10.33;5.20;;;10.00;99.90;;;;;;6251226;22;20165;-89
2022/05/29 11:37:20;;;;;;;5.37;4.50;;;10.00;99.90;;;;;;6258580;22;20188;-89
2022/05/29 11:40:00;;;;;;;5.17;4.60;;;10.00;99.90;;;;;;6252023;23;20257;-89
2022/05/29 11:42:40;;;;;;;6.07;5.07;;;10.00;99.90;;;;;;6250983;22;20175;-89
2022/05/29 11:45:16;;;;;;;6.63;5.53;;;10.10;99.90;;;;;;6252204;22;20230;-89
2022/05/29 11:53:36;;;;;;;5.83;4.77;;;10.00;99.90;;;;;;6254043;22;20179;-89
2022/05/29 11:56:15;;;;;;;6.83;4.80;;;10.00;99.90;;;;;;6254153;22;20175;-89
2022/05/29 11:58:55;;;;;;;5.13;4.60;;;10.00;99.90;;;;;;6254481;23;20163;-89
2022/05/29 12:01:28;;;;;;;6.00;5.07;;;10.00;99.90;;;;;;6253701;22;20195;-89
2022/05/29 12:04:07;;;;;;;5.17;4.67;;;10.00;99.90;;;;;;6255223;22;20256;-88
2022/05/29 12:06:45;;;;;;;6.40;4.77;;;10.00;99.90;;;;;;6265827;22;20177;-90
2022/05/29 12:09:22;;;;;;;5.77;4.50;;;10.00;99.90;;;;;;6272430;22;20156;-88
2022/05/29 12:11:59;;;;;;;7.00;4.63;;;10.00;99.90;;;;;;6272535;22;20171;-88
2022/05/29 12:14:36;;;;;;;5.93;4.67;;;10.00;99.90;;;;;;6271238;22;20168;-89
2022/05/29 12:17:11;;;;;;;4.67;4.23;;;10.00;99.90;;;;;;6270846;22;20174;-89
2022/05/29 12:19:46;;;;;;;5.63;4.20;;;9.90;99.90;;;;;;6255967;22;20171;-89
2022/05/29 12:22:21;;;;;;;4.17;3.77;;;9.90;99.90;;;;;;6253522;23;20167;-89
2022/05/29 12:24:54;;;;;;;5.13;4.07;;;9.90;99.90;;;;;;6254952;22;20199;-89
2022/05/29 12:27:29;;;;;;;4.00;3.60;;;9.90;99.90;;;;;;6253382;22;20614;-89
2022/05/29 12:30:06;;;;;;;3.97;3.30;;;10.00;99.90;;;;;;6251690;23;20178;-89
2022/05/29 12:32:38;;;;;;;4.57;3.77;;;10.00;99.90;;;;;;6251223;22;20179;-89
2022/05/29 12:35:17;;;;;;;3.57;3.17;;;10.00;99.90;;;;;;6251470;23;20172;-90
2022/05/29 12:38:09;;;;;;;4.07;3.57;;;10.00;99.90;;;;;;6251585;23;20210;-89
2022/05/29 12:41:06;;;;;;;3.80;3.50;;;10.00;99.90;;;;;;6250293;22;20190;-89
2022/05/29 12:44:04;;;;;;;4.50;4.00;;;10.00;99.90;;;;;;6251213;22;20207;-89
2022/05/29 12:46:59;;;;;;;4.03;3.50;;;10.00;99.90;;;;;;6251334;22;20222;-89
2022/05/29 12:50:01;;;;;;;5.47;3.90;;;10.00;99.90;;;;;;6263179;23;20223;-89
2022/05/29 12:53:04;;;;;;;2.90;2.60;;;10.00;99.90;;;;;;6271215;22;20152;-89
2022/05/29 12:55:51;;;;;;;3.40;3.10;;;9.90;99.90;;;;;;6271677;22;20172;-88
2022/05/29 12:58:45;;;;;;;2.70;2.50;;;10.00;99.90;;;;;;6270925;22;20159;-89
2022/05/29 13:01:46;;;;;;;4.93;2.70;;;10.00;99.90;;;;;;6269759;22;20187;-89
2022/05/29 13:04:55;;;;;;;3.60;2.47;;;9.90;99.90;;;;;;6271066;22;20217;-89
2022/05/29 13:07:30;;;;;;;3.37;2.37;;;10.00;99.90;;;;;;6240481;22;20180;-89
2022/05/29 13:10:11;;;;;;;3.77;2.30;;;10.00;99.90;;;;;;6253824;22;20183;-89
2022/05/29 13:12:49;;;;;;;2.33;1.73;;;10.00;99.90;;;;;;6253888;23;20164;-88
2022/05/29 13:15:30;;;;;;;2.73;2.00;;;10.00;99.90;;;;;;6253886;23;20175;-90
2022/05/29 13:18:06;;;;;;;3.30;2.03;;;10.00;99.90;;;;;;6255650;22;20221;-90
2022/05/29 13:21:12;;;;;;;3.80;1.97;;;10.00;99.90;;;;;;6251974;23;20512;-89
2022/05/29 13:23:49;;;;;;;1.70;1.60;;;10.00;99.90;;;;;;6250701;22;20176;-89
2022/05/29 13:26:24;;;;;;;2.77;2.07;;;10.00;99.90;;;;;;6257196;23;20207;-89
2022/05/29 13:29:01;;;;;;;2.03;1.80;;;10.10;99.90;;;;;;6254918;22;20167;-89
2022/05/29 13:31:34;;;;;;;1.70;1.60;;;10.10;99.90;;;;;;6257058;22;20191;-88
2022/05/29 13:34:27;;;;;;;2.00;1.70;;;10.10;99.90;;;;;;6254561;23;20179;-88
2022/05/29 13:37:04;;;;;;;1.90;1.67;;;10.10;99.90;;;;;;6254377;22;20559;-89
2022/05/29 13:40:06;;;;;;;1.60;1.50;;;10.10;99.90;;;;;;6253207;22;20179;-89
2022/05/29 13:42:44;;;;;;;3.23;1.80;;;10.10;99.90;;;;;;6254981;22;20645;-89
2022/05/29 13:45:58;;;;;;;2.47;1.33;;;10.20;99.90;;;;;;6254956;23;20245;-88
2022/05/29 13:48:31;;;;;;;1.37;1.27;;;10.20;99.90;;;;;;6253317;23;20221;-88
2022/05/29 13:51:26;;;;;;;1.33;1.13;;;10.20;99.90;;;;;;6251674;23;20163;-89
2022/05/29 13:54:01;;;;;;;1.30;1.10;;;10.30;99.90;;;;;;6252707;23;20160;-88
2022/05/29 13:56:58;;;;;;;1.33;1.10;;;10.20;99.90;;;;;;6252470;22;20168;-88
2022/05/29 14:05:38;;;;;;;2.60;0.97;;;10.30;99.90;;;;;;6243351;22;20207;-89
2022/05/29 14:08:34;;;;;;;2.00;1.00;;;10.30;99.90;;;;;;6253866;23;20614;-89
2022/05/29 14:11:15;;;;;;;1.00;0.90;;;10.30;99.90;;;;;;6252458;23;20172;-89
2022/05/29 14:13:50;;;;;;;1.27;1.10;;;10.30;99.90;;;;;;6254099;22;20164;-89
2022/05/29 14:16:44;;;;;;;1.13;1.03;;;10.30;99.90;;;;;;6254413;22;20164;-88
2022/05/29 14:19:48;;;;;;;0.87;0.87;;;10.30;99.90;;;;;;6266729;22;20168;-88